createdAt,value
2023-05-16T00:00:39.368Z,101480.50
2023-05-16T00:03:06.551Z,101479.44
2023-05-16T00:05:33.591Z,101478.44
2023-05-16T00:08:00.491Z,101480.38
2023-05-16T00:10:27.835Z,101479.52
2023-05-16T00:12:56.505Z,101475.38
2023-05-16T00:15:25.172Z,101481.00
2023-05-16T00:17:52.190Z,101485.73
2023-05-16T00:20:23.742Z,101487.23
2023-05-16T00:22:51.205Z,101484.23
2023-05-16T00:25:18.310Z,101481.50
2023-05-16T00:27:45.223Z,101479.66
2023-05-16T00:30:12.314Z,101476.89
2023-05-16T00:32:39.451Z,101479.58
2023-05-16T00:35:07.215Z,101481.58
2023-05-16T00:37:34.037Z,101479.82
2023-05-16T00:40:00.910Z,101483.17
2023-05-16T00:42:27.814Z,101479.12
2023-05-16T00:44:54.660Z,101477.30
2023-05-16T00:47:21.776Z,101475.49
2023-05-16T00:49:48.641Z,101476.23
2023-05-16T00:52:16.397Z,101468.03
2023-05-16T00:54:43.309Z,101464.16
2023-05-16T00:57:10.268Z,101462.39
2023-05-16T00:59:37.049Z,101464.25
2023-05-16T01:02:04.089Z,101461.46
2023-05-16T01:04:30.941Z,101461.29
2023-05-16T01:06:57.964Z,101463.69
2023-05-16T01:09:24.871Z,101463.00
2023-05-16T01:12:03.998Z,101464.34
2023-05-16T01:14:51.197Z,101470.08
2023-05-16T01:17:19.244Z,101468.66
2023-05-16T01:20:06.412Z,101469.73
2023-05-16T01:22:42.276Z,101464.45
2023-05-16T01:25:18.010Z,101463.04
2023-05-16T01:27:44.773Z,101464.98
2023-05-16T01:30:16.155Z,101461.91
2023-05-16T01:32:43.084Z,101464.07
2023-05-16T01:35:11.477Z,101466.50
2023-05-16T01:37:42.741Z,101466.81
2023-05-16T01:40:11.642Z,101460.77
2023-05-16T01:42:39.787Z,101461.04
2023-05-16T01:45:08.896Z,101457.63
2023-05-16T01:47:37.318Z,101460.33
2023-05-16T01:50:10.993Z,101460.58
2023-05-16T01:52:37.757Z,101462.91
2023-05-16T01:55:04.956Z,101461.92
2023-05-16T01:57:31.965Z,101462.93
2023-05-16T01:59:59.386Z,101465.86
2023-05-16T02:02:26.308Z,101466.10
2023-05-16T02:04:53.157Z,101464.38
2023-05-16T02:07:19.919Z,101460.21
2023-05-16T02:09:46.743Z,101453.91
2023-05-16T02:12:13.521Z,101453.91
2023-05-16T02:14:40.436Z,101455.39
2023-05-16T02:17:07.425Z,101457.08
2023-05-16T02:19:34.285Z,101457.70
2023-05-16T02:22:01.035Z,101457.11
2023-05-16T02:24:27.900Z,101453.29
2023-05-16T02:26:55.813Z,101454.30
2023-05-16T02:29:22.637Z,101457.16
2023-05-16T02:31:49.555Z,101458.95
2023-05-16T02:34:16.905Z,101464.77
2023-05-16T02:36:43.722Z,101466.13
2023-05-16T02:39:11.391Z,101466.49
2023-05-16T02:41:38.219Z,101465.26
2023-05-16T02:44:05.117Z,101465.31
2023-05-16T02:46:33.663Z,101463.18
2023-05-16T02:49:00.746Z,101459.30
2023-05-16T02:51:27.919Z,101459.15
2023-05-16T02:53:57.265Z,101463.02
2023-05-16T02:56:24.229Z,101464.36
2023-05-16T02:58:51.393Z,101460.29
2023-05-16T03:01:18.718Z,101453.95
2023-05-16T03:03:45.896Z,101450.98
2023-05-16T03:06:12.884Z,101449.70
2023-05-16T03:08:39.758Z,101448.57
2023-05-16T03:11:06.514Z,101450.48
2023-05-16T03:13:33.368Z,101448.25
2023-05-16T03:16:00.635Z,101447.16
2023-05-16T03:18:27.431Z,101444.00
2023-05-16T03:20:54.308Z,101440.83
2023-05-16T03:23:23.942Z,101439.17
2023-05-16T03:25:51.041Z,101443.91
2023-05-16T03:28:20.962Z,101448.55
2023-05-16T03:30:47.748Z,101449.95
2023-05-16T03:33:14.549Z,101450.98
2023-05-16T03:35:42.545Z,101456.80
2023-05-16T03:38:09.666Z,101458.70
2023-05-16T03:40:36.493Z,101459.08
2023-05-16T03:43:04.257Z,101462.51
2023-05-16T03:45:31.624Z,101463.72
2023-05-16T03:47:58.572Z,101466.81
2023-05-16T03:50:25.683Z,101467.96
2023-05-16T03:52:54.081Z,101471.31
2023-05-16T03:55:21.107Z,101476.48
2023-05-16T03:57:50.251Z,101480.09
2023-05-16T04:00:17.346Z,101473.21
2023-05-16T04:02:44.324Z,101476.19
2023-05-16T04:05:11.688Z,101473.07
2023-05-16T04:07:38.585Z,101475.70
2023-05-16T04:10:05.488Z,101474.41
2023-05-16T04:12:32.497Z,101475.67
2023-05-16T04:14:59.334Z,101473.92
2023-05-16T04:17:26.338Z,101475.97
2023-05-16T04:19:53.154Z,101483.33
2023-05-16T04:22:21.691Z,101483.48
2023-05-16T04:24:48.660Z,101485.94
2023-05-16T04:27:15.414Z,101485.95
2023-05-16T04:29:42.404Z,101490.62
2023-05-16T04:32:09.780Z,101493.77
2023-05-16T04:34:39.623Z,101499.06
2023-05-16T04:37:08.674Z,101508.23
2023-05-16T04:39:36.342Z,101506.69
2023-05-16T04:42:04.514Z,101506.52
2023-05-16T04:44:31.926Z,101502.34
2023-05-16T04:46:58.926Z,101507.09
2023-05-16T04:49:26.317Z,101508.12
2023-05-16T04:51:53.578Z,101511.41
2023-05-16T04:54:20.394Z,101509.09
2023-05-16T04:56:47.148Z,101506.99
2023-05-16T04:59:14.008Z,101506.62
2023-05-16T05:01:40.949Z,101505.10
2023-05-16T05:04:07.745Z,101504.95
2023-05-16T05:06:34.602Z,101505.46
2023-05-16T05:09:01.581Z,101505.16
2023-05-16T05:11:28.708Z,101507.95
2023-05-16T05:13:55.515Z,101503.47
2023-05-16T05:16:22.630Z,101499.44
2023-05-16T05:18:49.776Z,101503.00
2023-05-16T05:21:16.904Z,101504.08
2023-05-16T05:23:43.669Z,101504.34
2023-05-16T05:26:10.700Z,101506.27
2023-05-16T05:28:38.157Z,101502.23
2023-05-16T05:31:08.372Z,101502.55
2023-05-16T05:33:35.358Z,101500.82
2023-05-16T05:36:04.242Z,101503.13
2023-05-16T05:38:31.561Z,101504.52
2023-05-16T05:40:58.529Z,101499.93
2023-05-16T05:43:25.688Z,101497.10
2023-05-16T05:45:52.620Z,101497.27
2023-05-16T05:48:19.689Z,101498.70
2023-05-16T05:50:46.510Z,101495.87
2023-05-16T05:53:16.620Z,101497.19
2023-05-16T05:55:43.514Z,101494.98
2023-05-16T05:58:13.168Z,101500.58
2023-05-16T06:00:40.414Z,101504.67
2023-05-16T06:03:09.021Z,101503.70
2023-05-16T06:05:36.179Z,101507.90
2023-05-16T06:08:08.203Z,101512.17
2023-05-16T06:10:35.256Z,101516.43
2023-05-16T06:13:02.685Z,101518.33
2023-05-16T06:15:29.917Z,101519.23
2023-05-16T06:17:57.154Z,101521.23
2023-05-16T06:20:24.307Z,101523.16
2023-05-16T06:22:57.575Z,101525.27
2023-05-16T06:25:24.462Z,101529.39
2023-05-16T06:27:51.406Z,101526.20
2023-05-16T06:30:18.301Z,101524.46
2023-05-16T06:32:48.670Z,101519.45
2023-05-16T06:35:15.828Z,101520.83
2023-05-16T06:37:43.202Z,101518.17
2023-05-16T06:40:10.716Z,101518.70
2023-05-16T06:42:37.773Z,101516.80
2023-05-16T06:45:05.525Z,101514.04
2023-05-16T06:47:32.561Z,101513.92
2023-05-16T06:49:59.509Z,101510.40
2023-05-16T06:52:26.533Z,101513.07
2023-05-16T06:54:53.370Z,101513.77
2023-05-16T06:57:20.741Z,101512.77
2023-05-16T06:59:47.742Z,101511.66
2023-05-16T07:02:14.905Z,101513.86
2023-05-16T07:04:43.254Z,101517.45
2023-05-16T07:07:10.274Z,101518.23
2023-05-16T07:09:37.672Z,101511.87
2023-05-16T07:12:05.775Z,101508.50
2023-05-16T07:14:35.785Z,101514.23
2023-05-16T07:17:05.757Z,101515.24
2023-05-16T07:19:32.782Z,101511.98
2023-05-16T07:22:00.685Z,101508.69
2023-05-16T07:24:30.025Z,101507.93
2023-05-16T07:26:57.143Z,101514.62
2023-05-16T07:29:24.000Z,101520.09
2023-05-16T07:31:51.123Z,101521.58
2023-05-16T07:34:21.341Z,101520.42
2023-05-16T07:36:51.503Z,101519.16
2023-05-16T07:39:19.518Z,101518.19
2023-05-16T07:41:47.150Z,101517.52
2023-05-16T07:44:14.097Z,101516.33
2023-05-16T07:46:41.199Z,101517.30
2023-05-16T07:49:08.250Z,101521.01
2023-05-16T07:51:35.156Z,101523.60
2023-05-16T07:54:02.190Z,101527.16
2023-05-16T07:56:29.111Z,101527.45
2023-05-16T07:58:56.260Z,101527.27
2023-05-16T08:01:23.212Z,101526.92
2023-05-16T08:03:53.743Z,101525.67
2023-05-16T08:06:21.038Z,101524.86
2023-05-16T08:08:47.918Z,101526.70
2023-05-16T08:11:16.564Z,101522.05
2023-05-16T08:13:43.574Z,101522.45
2023-05-16T08:16:10.849Z,101519.91
2023-05-16T08:18:38.021Z,101517.61
2023-05-16T08:21:05.455Z,101517.12
2023-05-16T08:23:32.440Z,101518.56
2023-05-16T08:25:59.476Z,101517.80
2023-05-16T08:28:26.446Z,101519.98
2023-05-16T08:30:54.311Z,101523.28
2023-05-16T08:33:23.753Z,101525.46
2023-05-16T08:35:55.204Z,101522.08
2023-05-16T08:38:22.179Z,101522.34
2023-05-16T08:40:49.179Z,101522.04
2023-05-16T08:43:16.206Z,101519.81
2023-05-16T08:45:44.368Z,101517.55
2023-05-16T08:48:14.831Z,101515.28
2023-05-16T08:50:43.272Z,101514.20
2023-05-16T08:53:10.195Z,101511.14
2023-05-16T08:55:37.203Z,101509.94
2023-05-16T08:58:10.510Z,101507.34
2023-05-16T09:00:38.412Z,101505.56
2023-05-16T09:03:06.798Z,101505.71
2023-05-16T09:05:34.191Z,101504.42
2023-05-16T09:08:01.122Z,101506.23
2023-05-16T09:10:28.254Z,101502.34
2023-05-16T09:12:56.454Z,101505.33
2023-05-16T09:15:23.504Z,101503.19
2023-05-16T09:17:50.658Z,101507.87
2023-05-16T09:20:23.983Z,101505.09
2023-05-16T09:22:55.357Z,101505.96
2023-05-16T09:25:30.183Z,101508.65
2023-05-16T09:28:08.728Z,101507.13
2023-05-16T09:30:39.648Z,101507.30
2023-05-16T09:33:07.240Z,101507.55
2023-05-16T09:35:45.088Z,101508.59
2023-05-16T09:38:17.086Z,101508.86
2023-05-16T09:40:47.485Z,101507.46
2023-05-16T09:43:15.340Z,101503.77
2023-05-16T09:45:45.529Z,101506.30
2023-05-16T09:48:15.673Z,101507.48
2023-05-16T09:50:46.836Z,101504.52
2023-05-16T09:53:14.213Z,101504.35
2023-05-16T09:55:41.523Z,101497.96
2023-05-16T09:58:08.551Z,101498.87
2023-05-16T10:00:36.195Z,101502.54
2023-05-16T10:03:05.764Z,101502.81
2023-05-16T10:05:33.660Z,101503.96
2023-05-16T10:08:03.783Z,101502.99
2023-05-16T10:10:31.013Z,101500.15
2023-05-16T10:12:58.762Z,101504.34
2023-05-16T10:15:26.205Z,101502.30
2023-05-16T10:17:53.593Z,101500.84
2023-05-16T10:20:20.720Z,101500.23
2023-05-16T10:22:47.628Z,101496.72
2023-05-16T10:25:32.679Z,101498.48
2023-05-16T10:28:00.111Z,101497.72
2023-05-16T10:30:27.145Z,101494.56
2023-05-16T10:32:56.921Z,101493.45
2023-05-16T10:35:24.318Z,101498.11
2023-05-16T10:37:51.432Z,101499.52
2023-05-16T10:40:18.604Z,101498.92
2023-05-16T10:42:56.132Z,101497.99
2023-05-16T10:45:23.757Z,101500.61
2023-05-16T10:47:54.659Z,101504.27
2023-05-16T10:50:34.550Z,101506.17
2023-05-16T10:53:20.951Z,101505.19
2023-05-16T10:56:06.541Z,101497.60
2023-05-16T10:58:38.298Z,101493.73
2023-05-16T11:01:15.060Z,101489.52
2023-05-16T11:03:57.417Z,101486.18
2023-05-16T11:06:28.748Z,101482.30
2023-05-16T11:08:58.874Z,101483.94
2023-05-16T11:11:42.011Z,101481.34
2023-05-16T11:14:09.185Z,101475.58
2023-05-16T11:16:37.364Z,101470.55
2023-05-16T11:19:04.919Z,101468.51
2023-05-16T11:21:51.463Z,101464.27
2023-05-16T11:24:31.342Z,101459.99
2023-05-16T11:26:59.765Z,101457.50
2023-05-16T11:29:34.406Z,101452.31
2023-05-16T11:32:02.010Z,101451.81
2023-05-16T11:34:41.552Z,101455.39
2023-05-16T11:37:12.317Z,101456.86
2023-05-16T11:39:39.378Z,101457.33
2023-05-16T11:42:15.076Z,101454.23
2023-05-16T11:44:42.152Z,101454.49
2023-05-16T11:47:09.532Z,101453.64
2023-05-16T11:49:42.193Z,101451.52
2023-05-16T11:52:11.718Z,101441.09
2023-05-16T11:54:39.675Z,101430.67
2023-05-16T11:57:06.904Z,101425.41
2023-05-16T11:59:37.378Z,101428.46
2023-05-16T12:02:05.165Z,101426.42
2023-05-16T12:04:36.838Z,101425.70
2023-05-16T12:07:04.961Z,101422.82
2023-05-16T12:09:31.984Z,101423.69
2023-05-16T12:12:00.656Z,101420.45
2023-05-16T12:14:31.586Z,101420.16
2023-05-16T12:17:01.817Z,101419.31
2023-05-16T12:19:31.715Z,101422.43
2023-05-16T12:21:59.273Z,101423.65
2023-05-16T12:24:35.602Z,101423.23
2023-05-16T12:27:02.800Z,101423.23
2023-05-16T12:29:29.869Z,101416.68
2023-05-16T12:31:57.113Z,101411.23
2023-05-16T12:34:24.557Z,101404.52
2023-05-16T12:36:53.947Z,101403.94
2023-05-16T12:39:21.314Z,101407.10
2023-05-16T12:41:50.875Z,101409.45
2023-05-16T12:44:19.933Z,101412.82
2023-05-16T12:46:51.743Z,101412.64
2023-05-16T12:49:23.026Z,101416.28
2023-05-16T12:51:54.539Z,101416.48
2023-05-16T12:54:26.883Z,101415.05
2023-05-16T12:56:54.511Z,101416.86
2023-05-16T12:59:21.625Z,101416.91
2023-05-16T13:01:49.269Z,101417.86
2023-05-16T13:04:19.651Z,101416.52
2023-05-16T13:06:57.356Z,101411.66
2023-05-16T13:09:25.105Z,101411.99
2023-05-16T13:11:53.697Z,101410.72
2023-05-16T13:14:20.842Z,101415.05
2023-05-16T13:16:56.303Z,101422.48
2023-05-16T13:19:31.915Z,101426.17
2023-05-16T13:21:59.009Z,101426.98
2023-05-16T13:24:28.790Z,101429.35
2023-05-16T13:26:55.832Z,101426.37
2023-05-16T13:29:28.866Z,101426.89
2023-05-16T13:32:04.611Z,101429.45
2023-05-16T13:34:35.351Z,101428.81
2023-05-16T13:37:02.455Z,101424.76
2023-05-16T13:39:29.735Z,101424.25
2023-05-16T13:41:56.641Z,101428.16
2023-05-16T13:44:23.663Z,101428.34
2023-05-16T13:46:50.945Z,101431.80
2023-05-16T13:49:21.196Z,101433.86
2023-05-16T13:51:48.226Z,101433.74
2023-05-16T13:54:15.681Z,101434.71
2023-05-16T13:56:42.595Z,101432.37
2023-05-16T13:59:15.394Z,101430.55
2023-05-16T14:01:51.219Z,101427.41
2023-05-16T14:04:23.061Z,101424.39
2023-05-16T14:06:50.976Z,101423.87
2023-05-16T14:09:19.043Z,101422.79
2023-05-16T14:11:45.886Z,101423.31
2023-05-16T14:14:12.895Z,101420.98
2023-05-16T14:16:46.410Z,101422.25
2023-05-16T14:19:19.129Z,101419.64
2023-05-16T14:21:46.752Z,101425.30
2023-05-16T14:24:13.617Z,101424.70
2023-05-16T14:26:41.479Z,101428.42
2023-05-16T14:29:08.566Z,101425.92
2023-05-16T14:31:36.879Z,101424.80
2023-05-16T14:34:06.958Z,101424.13
2023-05-16T14:36:34.014Z,101427.31
2023-05-16T14:39:01.101Z,101426.14
2023-05-16T14:41:28.251Z,101428.27
2023-05-16T14:43:58.230Z,101423.33
2023-05-16T14:46:25.345Z,101424.66
2023-05-16T14:48:52.722Z,101418.88
2023-05-16T14:51:19.628Z,101414.58
2023-05-16T14:53:47.378Z,101410.02
2023-05-16T14:56:14.492Z,101409.11
2023-05-16T14:58:41.568Z,101407.33
2023-05-16T15:01:13.110Z,101403.65
2023-05-16T15:06:11.927Z,101394.34
2023-05-16T15:08:38.937Z,101393.48
2023-05-16T15:11:06.095Z,101393.49
2023-05-16T15:13:32.973Z,101393.89
2023-05-16T15:16:00.116Z,101392.45
2023-05-16T15:18:27.082Z,101393.16
2023-05-16T15:20:53.964Z,101389.84
2023-05-16T15:23:20.988Z,101387.33
2023-05-16T15:25:47.950Z,101386.39
2023-05-16T15:28:14.779Z,101386.82
2023-05-16T15:30:41.655Z,101387.49
2023-05-16T15:33:10.553Z,101390.13
2023-05-16T15:35:37.639Z,101395.92
2023-05-16T15:38:04.760Z,101395.50
2023-05-16T15:40:31.706Z,101394.26
2023-05-16T15:42:58.633Z,101390.86
2023-05-16T15:45:25.691Z,101385.94
2023-05-16T15:47:52.768Z,101386.61
2023-05-16T15:50:19.823Z,101386.50
2023-05-16T15:52:46.792Z,101384.17
2023-05-16T15:55:14.113Z,101387.54
2023-05-16T15:57:42.520Z,101389.10
2023-05-16T16:00:09.772Z,101387.23
2023-05-16T16:02:40.637Z,101387.91
2023-05-16T16:05:07.927Z,101385.60
2023-05-16T16:07:35.084Z,101383.61
2023-05-16T16:10:02.184Z,101383.56
2023-05-16T16:12:29.893Z,101379.27
2023-05-16T16:14:56.963Z,101377.93
2023-05-16T16:17:24.044Z,101382.80
2023-05-16T16:19:58.044Z,101380.28
2023-05-16T16:22:25.206Z,101376.79
2023-05-16T16:24:52.302Z,101379.57
2023-05-16T16:27:19.080Z,101379.83
2023-05-16T16:29:46.239Z,101382.98
2023-05-16T16:32:13.122Z,101388.22
2023-05-16T16:34:39.945Z,101388.14
2023-05-16T16:37:07.223Z,101385.88
2023-05-16T16:39:34.098Z,101384.58
2023-05-16T16:42:00.987Z,101383.40
2023-05-16T16:44:28.189Z,101383.27
2023-05-16T16:46:55.228Z,101383.51
2023-05-16T16:49:22.104Z,101384.59
2023-05-16T16:51:50.213Z,101381.95
2023-05-16T16:54:17.266Z,101383.71
2023-05-16T16:56:48.992Z,101389.09
2023-05-16T16:59:16.847Z,101390.48
2023-05-16T17:01:44.104Z,101390.92
2023-05-16T17:04:12.339Z,101390.73
2023-05-16T17:06:39.679Z,101387.97
2023-05-16T17:09:14.234Z,101383.22
2023-05-16T17:11:42.412Z,101376.98
2023-05-16T17:14:11.140Z,101376.45
2023-05-16T17:16:41.055Z,101377.20
2023-05-16T17:19:08.333Z,101377.65
2023-05-16T17:21:37.074Z,101375.34
2023-05-16T17:24:04.062Z,101374.03
2023-05-16T17:26:31.884Z,101368.94
2023-05-16T17:29:00.537Z,101366.58
2023-05-16T17:31:27.961Z,101364.11
2023-05-16T17:33:56.292Z,101364.01
2023-05-16T17:36:24.552Z,101366.78
2023-05-16T17:38:51.452Z,101366.16
2023-05-16T17:41:18.756Z,101369.45
2023-05-16T17:43:45.755Z,101371.74
2023-05-16T17:46:12.825Z,101372.80
2023-05-16T17:48:39.732Z,101367.15
2023-05-16T17:51:06.972Z,101364.39
2023-05-16T17:53:33.862Z,101364.58
2023-05-16T17:56:00.846Z,101366.28
2023-05-16T17:58:28.438Z,101372.63
2023-05-16T18:00:55.378Z,101373.59
2023-05-16T18:03:22.919Z,101375.70
2023-05-16T18:05:50.666Z,101374.73
2023-05-16T18:08:17.602Z,101372.36
2023-05-16T18:10:52.201Z,101378.98
2023-05-16T18:13:20.146Z,101375.10
2023-05-16T18:15:47.081Z,101378.77
2023-05-16T18:18:13.921Z,101376.77
2023-05-16T18:20:41.001Z,101382.77
2023-05-16T18:23:08.866Z,101378.55
2023-05-16T18:25:35.861Z,101382.71
2023-05-16T18:28:02.728Z,101382.52
2023-05-16T18:30:29.623Z,101384.47
2023-05-16T18:32:56.594Z,101380.66
2023-05-16T18:35:23.871Z,101380.11
2023-05-16T18:37:50.863Z,101381.65
2023-05-16T18:40:18.264Z,101378.60
2023-05-16T18:42:45.269Z,101383.75
2023-05-16T18:45:12.262Z,101381.04
2023-05-16T18:47:39.236Z,101384.33
2023-05-16T18:50:06.722Z,101383.62
2023-05-16T18:52:35.457Z,101381.95
2023-05-16T18:55:02.269Z,101385.40
2023-05-16T18:57:29.234Z,101383.06
2023-05-16T18:59:57.044Z,101381.20
2023-05-16T19:02:34.029Z,101378.14
2023-05-16T19:05:08.168Z,101384.52
2023-05-16T19:07:35.228Z,101383.53
2023-05-16T19:10:03.770Z,101385.73
2023-05-16T19:12:31.135Z,101381.42
2023-05-16T19:14:58.121Z,101381.39
2023-05-16T19:17:25.296Z,101385.89
2023-05-16T19:19:52.393Z,101385.52
2023-05-16T19:22:19.292Z,101385.06
2023-05-16T19:24:46.251Z,101385.73
2023-05-16T19:27:13.466Z,101384.83
2023-05-16T19:29:40.404Z,101389.27
2023-05-16T19:32:07.670Z,101389.45
2023-05-16T19:34:34.592Z,101388.55
2023-05-16T19:37:03.472Z,101381.73
2023-05-16T19:39:32.216Z,101379.98
2023-05-16T19:42:07.015Z,101379.47
2023-05-16T19:44:35.121Z,101379.66
2023-05-16T19:47:02.174Z,101381.51
2023-05-16T19:49:30.641Z,101379.38
2023-05-16T19:51:57.465Z,101378.08
2023-05-16T19:54:24.443Z,101374.02
2023-05-16T19:56:51.388Z,101377.84
2023-05-16T19:59:18.308Z,101380.47
2023-05-16T20:01:46.003Z,101382.42
2023-05-16T20:04:13.073Z,101382.00
2023-05-16T20:06:40.129Z,101384.20
2023-05-16T20:09:07.757Z,101380.70
2023-05-16T20:11:34.675Z,101377.22
2023-05-16T20:14:01.859Z,101376.98
2023-05-16T20:16:28.805Z,101378.98
2023-05-16T20:18:55.891Z,101378.20
2023-05-16T20:21:22.783Z,101377.95
2023-05-16T20:23:49.699Z,101384.34
2023-05-16T20:26:16.756Z,101379.62
2023-05-16T20:28:43.937Z,101380.22
2023-05-16T20:31:10.927Z,101383.72
2023-05-16T20:33:38.113Z,101376.80
2023-05-16T20:36:05.169Z,101374.33
2023-05-16T20:38:32.146Z,101373.94
2023-05-16T20:40:59.673Z,101376.00
2023-05-16T20:43:26.872Z,101370.88
2023-05-16T20:45:54.009Z,101368.40
2023-05-16T20:48:21.032Z,101367.32
2023-05-16T20:50:48.071Z,101371.60
2023-05-16T20:53:15.146Z,101371.41
2023-05-16T20:55:41.994Z,101371.41
2023-05-16T20:58:09.070Z,101369.26
2023-05-16T21:00:35.953Z,101366.39
2023-05-16T21:03:02.946Z,101367.48
2023-05-16T21:05:30.110Z,101365.01
2023-05-16T21:07:57.144Z,101366.27
2023-05-16T21:10:24.098Z,101364.95
2023-05-16T21:12:51.052Z,101365.73
2023-05-16T21:15:18.032Z,101363.59
2023-05-16T21:17:45.157Z,101362.09
2023-05-16T21:20:12.184Z,101361.37
2023-05-16T21:22:39.140Z,101363.65
2023-05-16T21:25:06.295Z,101358.89
2023-05-16T21:27:33.141Z,101355.88
2023-05-16T21:29:59.983Z,101357.80
2023-05-16T21:32:32.322Z,101351.33
2023-05-16T21:35:01.281Z,101348.07
2023-05-16T21:37:28.248Z,101347.73
2023-05-16T21:39:55.129Z,101350.96
2023-05-16T21:42:22.207Z,101348.21
2023-05-16T21:44:49.032Z,101343.61
2023-05-16T21:47:16.058Z,101344.38
2023-05-16T21:49:43.138Z,101341.80
2023-05-16T21:52:09.944Z,101344.02
2023-05-16T21:54:36.802Z,101339.48
2023-05-16T21:57:03.968Z,101342.17
2023-05-16T21:59:30.797Z,101341.05
2023-05-16T22:01:57.850Z,101346.41
2023-05-16T22:04:24.854Z,101347.33
2023-05-16T22:06:51.778Z,101342.64
2023-05-16T22:09:18.625Z,101343.09
2023-05-16T22:11:45.717Z,101343.53
2023-05-16T22:14:12.649Z,101340.63
2023-05-16T22:16:39.597Z,101338.89
2023-05-16T22:19:06.912Z,101340.14
2023-05-16T22:21:33.792Z,101336.65
2023-05-16T22:24:00.759Z,101335.41
2023-05-16T22:26:27.641Z,101335.70
2023-05-16T22:28:54.621Z,101330.13
2023-05-16T22:31:21.841Z,101326.45
2023-05-16T22:33:48.981Z,101327.62
2023-05-16T22:36:15.926Z,101329.92
2023-05-16T22:38:42.773Z,101325.84
2023-05-16T22:41:09.708Z,101320.91
2023-05-16T22:43:36.629Z,101317.16
2023-05-16T22:46:03.563Z,101315.59
2023-05-16T22:48:30.574Z,101317.30
2023-05-16T22:50:57.606Z,101316.54
2023-05-16T22:53:24.462Z,101318.30
2023-05-16T22:55:51.399Z,101319.14
2023-05-16T22:58:18.269Z,101317.63
2023-05-16T23:00:45.229Z,101315.97
2023-05-16T23:03:12.231Z,101312.34
2023-05-16T23:05:39.089Z,101313.45
2023-05-16T23:08:05.993Z,101314.77
2023-05-16T23:10:32.841Z,101309.29
2023-05-16T23:12:59.665Z,101311.27
2023-05-16T23:15:26.614Z,101307.73
2023-05-16T23:17:53.924Z,101306.63
2023-05-16T23:20:20.841Z,101308.35
2023-05-16T23:22:47.767Z,101308.09
2023-05-16T23:25:14.661Z,101308.77
2023-05-16T23:27:41.666Z,101307.09
2023-05-16T23:30:09.274Z,101308.38
2023-05-16T23:32:36.791Z,101309.36
2023-05-16T23:35:03.759Z,101303.44
2023-05-16T23:37:31.276Z,101300.80
2023-05-16T23:39:58.136Z,101298.27
2023-05-16T23:42:25.021Z,101297.13
2023-05-16T23:44:51.853Z,101297.92
2023-05-16T23:47:18.773Z,101298.62
2023-05-16T23:49:45.891Z,101302.53
2023-05-16T23:52:13.662Z,101303.62
2023-05-16T23:54:40.690Z,101302.27
2023-05-16T23:57:07.586Z,101302.00
2023-05-16T23:59:34.405Z,101301.05
